»·PEaware :: SWA404 KOTH-KSLC

SWA404 :: KOTH-KSLC

FLIGHT INFORMATION

Flight Status: Arrived
Operator:
Southwest Airlines
More flights by this operator :: More flights under this callsign
Pilot: Wadhah A. (6578)
Aircraft: BOEING 737-300
(B733)
More flights by this aircraft type
Origin: KOTH North Bend Mun
United States
Destination: KSLC Salt Lake City Intl
United States
More flights between these airports :: More routes between these airports
Route: +OTH RBG LKV REO BYI SKEES4
File this flight plan on PilotEdge
Remarks:
Altitude:
(Current/Filed)
37,000ft
Speed:
(Current/Filed)
450kts
Departed: 02-Jun-17 05:45 PM
Arrived: 02-Jun-17 07:21 PM
Distance/Time
Traveled:
568nm/1:36
Distance/Time
To Go:
Arrived

Flight Plot

Page will automatically refresh every two minutes.

Flight plan parsing failed; only flown route is shown


Map Options




Map Legend


Flown Route
Filed Route
Departure Airport
Arrival Airport
Navaid (VOR, NDB)
Fix

Horizontal Profiles

Position Reports

Time Latitude Longitude Heading Altitude Ground
Speed
02-Jun-17 17:18 43.416764 -124.249089 215 11ft 0kts
02-Jun-17 17:19 43.416764 -124.249089 215 11ft 0kts
02-Jun-17 17:20 43.416764 -124.249089 215 11ft 0kts
02-Jun-17 17:21 43.416764 -124.249089 215 11ft 0kts
02-Jun-17 17:22 43.416764 -124.249089 215 11ft 0kts
02-Jun-17 17:23 43.416764 -124.249089 215 11ft 0kts
02-Jun-17 17:24 43.416764 -124.249089 215 11ft 0kts
02-Jun-17 17:25 43.416764 -124.249089 215 11ft 0kts
02-Jun-17 17:26 43.416764 -124.249089 215 11ft 0kts
02-Jun-17 17:27 43.416764 -124.249089 215 11ft 0kts
02-Jun-17 17:28 43.416764 -124.249089 215 11ft 0kts
02-Jun-17 17:29 43.416764 -124.249089 215 11ft 0kts
02-Jun-17 17:30 43.416764 -124.249089 215 11ft 0kts
02-Jun-17 17:31 43.416764 -124.249089 215 11ft 0kts
02-Jun-17 17:32 43.416764 -124.249089 215 11ft 0kts
02-Jun-17 17:33 43.417079 -124.249366 3 11ft 6kts
02-Jun-17 17:34 43.417474 -124.249420 336 11ft 0kts
02-Jun-17 17:35 43.417474 -124.249420 336 11ft 0kts
02-Jun-17 17:36 43.417684 -124.249586 316 11ft 6kts
02-Jun-17 17:37 43.416280 -124.253720 240 11ft 14kts
02-Jun-17 17:38 43.414474 -124.258184 240 11ft 11kts
02-Jun-17 17:39 43.414157 -124.258942 239 11ft 0kts
02-Jun-17 17:40 43.414156 -124.258943 239 11ft 0kts
02-Jun-17 17:41 43.414003 -124.259898 309 11ft 0kts
02-Jun-17 17:42 43.414003 -124.259898 309 11ft 0kts
02-Jun-17 17:43 43.414003 -124.259898 309 11ft 0kts
02-Jun-17 17:44 43.414003 -124.259898 309 11ft 0kts
02-Jun-17 17:45 43.414003 -124.259898 309 11ft 0kts
02-Jun-17 17:46 43.414118 -124.260034 324 11ft 4kts
02-Jun-17 17:47 43.416114 -124.257213 59 11ft 74kts
02-Jun-17 17:48 43.428617 -124.207187 57 2173ft 154kts
02-Jun-17 17:49 43.455787 -124.229187 251 4768ft 188kts
02-Jun-17 17:50 43.425882 -124.302205 237 7537ft 240kts
02-Jun-17 17:51 43.436178 -124.381523 333 10870ft 267kts
02-Jun-17 17:52 43.496048 -124.336051 82 13820ft 295kts
02-Jun-17 17:53 43.457567 -124.235854 133 14994ft 344kts
02-Jun-17 17:54 43.401899 -124.122365 112 14993ft 370kts
02-Jun-17 17:55 43.365208 -123.991303 112 14993ft 368kts
02-Jun-17 17:56 43.330703 -123.868836 112 14978ft 368kts
02-Jun-17 17:57 43.293687 -123.737275 113 16026ft 378kts
02-Jun-17 17:58 43.254807 -123.601434 113 18728ft 394kts
02-Jun-17 17:59 43.214056 -123.459906 113 21264ft 408kts
02-Jun-17 18:00 43.173644 -123.314263 109 23563ft 420kts
02-Jun-17 18:01 43.139236 -123.163749 109 25496ft 433kts
02-Jun-17 18:02 43.102512 -123.004062 109 27312ft 447kts
02-Jun-17 18:03 43.065203 -122.841511 109 28988ft 459kts
02-Jun-17 18:04 43.027579 -122.678895 110 31103ft 453kts
02-Jun-17 18:05 42.990051 -122.519263 110 32676ft 455kts
02-Jun-17 18:06 42.951381 -122.355941 110 34135ft 456kts
02-Jun-17 18:07 42.912359 -122.192312 110 35488ft 455kts
02-Jun-17 18:08 42.873272 -122.029616 110 36670ft 454kts
02-Jun-17 18:09 42.834181 -121.867532 110 37023ft 462kts
02-Jun-17 18:10 42.794447 -121.702141 111 37049ft 460kts
02-Jun-17 18:11 42.754062 -121.537633 111 37050ft 460kts
02-Jun-17 18:12 42.713437 -121.373298 111 37050ft 460kts
02-Jun-17 18:13 42.672706 -121.209661 111 37050ft 460kts
02-Jun-17 18:14 42.632535 -121.049402 111 37064ft 462kts
02-Jun-17 18:15 42.591192 -120.885530 111 37061ft 462kts
02-Jun-17 18:16 42.551323 -120.726014 112 37077ft 462kts
02-Jun-17 18:17 42.509451 -120.562402 112 37077ft 461kts
02-Jun-17 18:18 42.497365 -120.393467 85 37080ft 469kts
02-Jun-17 18:19 42.506709 -120.218241 87 37077ft 468kts
02-Jun-17 18:20 42.514624 -120.043234 87 37078ft 468kts
02-Jun-17 18:21 42.522244 -119.871294 87 37039ft 469kts
02-Jun-17 18:22 42.530191 -119.695733 88 37078ft 468kts
02-Jun-17 18:23 42.537367 -119.520037 87 37077ft 468kts
02-Jun-17 18:24 42.544259 -119.344959 87 37066ft 468kts
02-Jun-17 18:25 42.550882 -119.169849 87 37049ft 468kts
02-Jun-17 18:26 42.557252 -118.994354 87 37051ft 468kts
02-Jun-17 18:27 42.563620 -118.821802 88 37042ft 467kts
02-Jun-17 18:28 42.569651 -118.646479 88 37051ft 468kts
02-Jun-17 18:29 42.575202 -118.471415 88 37050ft 467kts
02-Jun-17 18:30 42.580502 -118.295908 88 37050ft 467kts
02-Jun-17 18:31 42.585541 -118.120179 88 37050ft 467kts
02-Jun-17 18:32 42.590308 -117.944523 88 37051ft 467kts
02-Jun-17 18:33 42.592461 -117.818495 91 37043ft 466kts
02-Jun-17 18:34 42.594000 -117.643615 90 37051ft 467kts
02-Jun-17 18:35 42.596186 -117.467771 90 37050ft 467kts
02-Jun-17 18:36 42.598071 -117.293016 90 37050ft 467kts
02-Jun-17 18:37 42.599703 -117.117168 90 37050ft 467kts
02-Jun-17 18:38 42.601059 -116.942183 90 37037ft 467kts
02-Jun-17 18:39 42.602658 -116.771742 90 37020ft 466kts
02-Jun-17 18:40 42.603528 -116.596227 91 37024ft 466kts
02-Jun-17 18:41 42.604090 -116.421629 91 37023ft 466kts
02-Jun-17 18:42 42.604387 -116.246650 91 37023ft 466kts
02-Jun-17 18:43 42.604417 -116.071610 91 37023ft 466kts
02-Jun-17 18:44 42.604183 -115.897438 91 37023ft 466kts
02-Jun-17 18:45 42.604275 -115.726154 91 37023ft 466kts
02-Jun-17 18:46 42.603511 -115.551089 91 37023ft 466kts
02-Jun-17 18:47 42.602492 -115.377475 91 37023ft 466kts
02-Jun-17 18:48 42.601198 -115.202183 91 37023ft 466kts
02-Jun-17 18:49 42.599672 -115.030461 91 37103ft 466kts
02-Jun-17 18:50 42.598076 -114.863571 91 37071ft 466kts
02-Jun-17 18:51 42.596497 -114.690231 92 37105ft 466kts
02-Jun-17 18:52 42.594175 -114.515712 92 37104ft 466kts
02-Jun-17 18:53 42.591554 -114.345031 92 37104ft 466kts
02-Jun-17 18:54 42.587766 -114.172354 93 37103ft 466kts
02-Jun-17 18:55 42.583656 -113.997804 92 37076ft 465kts
02-Jun-17 18:56 42.562909 -113.832045 133 37065ft 448kts
02-Jun-17 18:57 42.471992 -113.719744 140 37086ft 448kts
02-Jun-17 18:58 42.399255 -113.623016 140 37024ft 448kts
02-Jun-17 18:59 42.311023 -113.505527 139 35517ft 444kts
02-Jun-17 19:00 42.223030 -113.389475 139 33550ft 445kts
02-Jun-17 19:01 42.137088 -113.275968 139 31544ft 424kts
02-Jun-17 19:02 42.052100 -113.164190 139 29628ft 434kts
02-Jun-17 19:03 41.965453 -113.050635 139 27875ft 438kts
02-Jun-17 19:04 41.878182 -112.936731 138 25844ft 442kts
02-Jun-17 19:05 41.792850 -112.824703 138 24186ft 429kts
02-Jun-17 19:06 41.707386 -112.713867 139 24086ft 432kts
02-Jun-17 19:07 41.621533 -112.604465 138 21927ft 418kts
02-Jun-17 19:08 41.540628 -112.500591 138 19582ft 395kts
02-Jun-17 19:09 41.458698 -112.411265 133 17408ft 382kts
02-Jun-17 19:10 41.400645 -112.324894 134 15646ft 372kts
02-Jun-17 19:11 41.357453 -112.261098 134 14319ft 362kts
02-Jun-17 19:12 41.294539 -112.168671 135 12957ft 328kts
02-Jun-17 19:13 41.239308 -112.088532 135 12347ft 297kts
02-Jun-17 19:14 41.180233 -112.022045 166 11194ft 273kts
02-Jun-17 19:15 41.115147 -112.004894 179 11036ft 221kts
02-Jun-17 19:16 41.056549 -112.006722 178 10067ft 192kts
02-Jun-17 19:17 41.006948 -112.000928 174 8163ft 175kts
02-Jun-17 19:18 40.962295 -111.994798 176 7391ft 167kts
02-Jun-17 19:19 40.917858 -111.989829 176 6426ft 157kts
02-Jun-17 19:20 40.874540 -111.984780 176 5583ft 158kts
02-Jun-17 19:21 40.832908 -111.979804 176 4758ft 151kts
02-Jun-17 19:22 40.795569 -111.975613 174 4234ft 116kts
02-Jun-17 19:23 40.784580 -111.975738 217 4234ft 0kts
02-Jun-17 19:24 40.785804 -111.976627 350 4234ft 12kts
02-Jun-17 19:25 40.786749 -111.978275 310 4234ft 0kts

Navigation Log

Ident Type
Flight plan parsing failed, navigation log unavailable